Time;durP1;ratioP1;P1;durP2;ratioP2;P2;SDS_P1;SDS_P2;PMS_P1;PMS_P2;Temp;Humidity;BMP_temperature;BMP_pressure;BME280_temperature;BME280_humidity;BME280_pressure;Samples;Min_cycle;Max_cycle;Signal;HPM_P1;HPM_P2
2022/06/22 00:01:55;;;;;;;9.35;4.63;;;15.30;99.90;;;;;;5107383;28;20040;-57
2022/06/22 00:04:47;;;;;;;9.63;5.18;;;15.30;99.90;;;;;;5105492;28;20055;-56
2022/06/22 00:07:28;;;;;;;8.50;4.47;;;15.20;99.90;;;;;;5107422;28;20414;-56
2022/06/22 00:10:42;;;;;;;10.50;5.20;;;15.20;99.90;;;;;;5107532;28;20043;-55
2022/06/22 00:13:23;;;;;;;13.35;5.28;;;15.10;99.90;;;;;;5092701;28;20062;-55
2022/06/22 00:16:03;;;;;;;10.75;5.40;;;15.10;99.90;;;;;;5110006;28;20043;-57
2022/06/22 00:18:33;;;;;;;10.13;4.65;;;15.00;99.90;;;;;;5099547;28;20570;-56
2022/06/22 00:21:35;;;;;;;8.05;4.38;;;15.00;99.90;;;;;;5088685;28;20055;-57
2022/06/22 00:24:23;;;;;;;9.95;4.97;;;15.00;99.90;;;;;;5104097;28;20396;-57
2022/06/22 00:26:57;;;;;;;13.38;5.78;;;14.90;99.90;;;;;;5106245;28;20043;-57
2022/06/22 00:29:36;;;;;;;11.13;5.03;;;15.00;99.90;;;;;;5094722;28;20044;-57
2022/06/22 00:32:14;;;;;;;8.15;5.40;;;14.90;99.90;;;;;;5089983;28;20406;-56
2022/06/22 00:34:41;;;;;;;6.63;5.03;;;14.90;99.90;;;;;;5106567;28;20040;-57
2022/06/22 00:37:17;;;;;;;10.50;5.45;;;14.80;99.90;;;;;;5089693;28;20044;-56
2022/06/22 00:39:46;;;;;;;11.32;4.78;;;14.90;99.90;;;;;;5098260;28;20043;-56
2022/06/22 00:42:24;;;;;;;8.87;5.20;;;14.90;99.90;;;;;;5111055;28;20475;-57
2022/06/22 00:45:01;;;;;;;11.20;5.50;;;14.80;99.90;;;;;;5094549;28;20632;-55
2022/06/22 00:47:36;;;;;;;10.73;5.20;;;14.90;99.90;;;;;;5094371;28;20040;-55
2022/06/22 00:50:09;;;;;;;13.30;6.18;;;14.90;99.90;;;;;;5111222;28;20070;-56
2022/06/22 00:53:05;;;;;;;10.82;5.90;;;14.90;99.90;;;;;;5105970;28;20036;-57
2022/06/22 00:55:42;;;;;;;11.43;6.53;;;15.00;99.90;;;;;;5104252;28;20047;-56
2022/06/22 00:58:37;;;;;;;9.32;5.80;;;15.00;99.90;;;;;;5107388;28;20052;-57
2022/06/22 01:01:19;;;;;;;16.63;6.20;;;15.10;99.90;;;;;;5093263;28;20052;-56
2022/06/22 01:04:02;;;;;;;12.95;6.45;;;15.10;99.90;;;;;;5089537;28;20044;-56
2022/06/22 01:06:39;;;;;;;10.20;6.13;;;15.20;99.90;;;;;;5093997;28;20872;-56
2022/06/22 01:09:26;;;;;;;13.07;6.32;;;15.20;99.90;;;;;;5101260;28;20059;-56
2022/06/22 01:12:33;;;;;;;12.10;7.78;;;15.30;99.90;;;;;;5098513;28;20047;-55
2022/06/22 01:15:12;;;;;;;11.27;6.13;;;15.30;99.90;;;;;;5112544;28;20058;-55
2022/06/22 01:18:04;;;;;;;12.95;6.78;;;15.30;99.90;;;;;;5112312;28;20048;-57
2022/06/22 01:21:08;;;;;;;11.10;6.53;;;15.40;99.90;;;;;;5112434;28;20046;-57
2022/06/22 01:23:42;;;;;;;12.75;6.60;;;15.40;99.90;;;;;;5112543;28;20666;-57
2022/06/22 01:26:40;;;;;;;15.60;6.53;;;15.50;99.90;;;;;;5111686;28;20051;-57
2022/06/22 01:29:14;;;;;;;16.20;7.35;;;15.50;99.90;;;;;;5097080;28;20048;-57
2022/06/22 01:31:50;;;;;;;17.65;8.38;;;15.50;99.90;;;;;;5103649;28;20044;-57
2022/06/22 01:34:19;;;;;;;14.20;7.82;;;15.50;99.90;;;;;;5112934;28;20058;-56
2022/06/22 01:36:47;;;;;;;15.82;8.50;;;15.50;99.90;;;;;;5114348;28;20039;-54
2022/06/22 01:39:15;;;;;;;22.08;9.73;;;15.40;99.90;;;;;;5101537;28;20059;-56
2022/06/22 01:41:45;;;;;;;18.77;8.60;;;15.50;99.90;;;;;;5094278;28;20063;-57
2022/06/22 01:44:31;;;;;;;19.00;10.20;;;15.40;99.90;;;;;;5113093;28;20047;-56
2022/06/22 01:47:14;;;;;;;35.72;10.38;;;15.40;99.90;;;;;;5113538;28;20043;-57
2022/06/22 01:50:18;;;;;;;16.50;8.57;;;15.40;99.90;;;;;;5113962;28;20058;-56
2022/06/22 01:52:59;;;;;;;19.83;9.38;;;15.40;99.90;;;;;;5113651;28;20047;-57
2022/06/22 01:55:54;;;;;;;19.73;9.00;;;15.30;99.90;;;;;;5113388;28;20044;-57
2022/06/22 01:58:21;;;;;;;20.90;10.73;;;15.30;99.90;;;;;;5113763;28;20395;-58
2022/06/22 02:01:03;;;;;;;19.70;9.70;;;15.30;99.90;;;;;;5111829;28;20066;-57
2022/06/22 02:03:39;;;;;;;17.27;9.77;;;15.30;99.90;;;;;;5114648;28;20044;-57
2022/06/22 02:09:10;;;;;;;22.90;9.90;;;15.30;99.90;;;;;;5114636;28;20062;-57
2022/06/22 02:11:47;;;;;;;17.95;10.63;;;15.20;99.90;;;;;;5111905;28;20605;-54
2022/06/22 02:14:25;;;;;;;22.08;10.70;;;15.20;99.90;;;;;;5112051;28;20054;-55
2022/06/22 02:16:58;;;;;;;24.63;10.25;;;15.20;99.90;;;;;;5093672;28;20040;-55
2022/06/22 02:19:30;;;;;;;23.15;11.02;;;15.20;99.90;;;;;;5100291;28;20051;-55
2022/06/22 02:22:00;;;;;;;24.30;10.30;;;15.20;99.90;;;;;;5111412;28;20048;-54
2022/06/22 02:24:37;;;;;;;23.33;10.55;;;15.20;99.90;;;;;;5112273;28;20051;-53
2022/06/22 02:27:18;;;;;;;21.00;11.32;;;15.20;99.90;;;;;;5114098;28;20050;-55
2022/06/22 02:29:49;;;;;;;18.17;9.57;;;15.20;99.90;;;;;;5113946;28;20063;-54
2022/06/22 02:32:31;;;;;;;21.67;9.13;;;15.10;99.90;;;;;;5112252;28;20051;-55
2022/06/22 02:35:00;;;;;;;18.05;9.32;;;15.00;99.90;;;;;;5113264;28;20118;-54
2022/06/22 02:37:31;;;;;;;19.10;9.90;;;15.00;99.90;;;;;;5113626;28;20036;-54
2022/06/22 02:40:03;;;;;;;22.60;10.40;;;15.00;99.90;;;;;;5112795;28;20079;-55
2022/06/22 02:45:17;;;;;;;15.95;8.55;;;15.00;99.90;;;;;;5112281;28;20357;-56
2022/06/22 02:47:58;;;;;;;19.85;9.65;;;14.90;99.90;;;;;;5112935;28;20048;-55
2022/06/22 02:50:46;;;;;;;16.88;8.52;;;14.90;99.90;;;;;;5111478;28;20709;-55
2022/06/22 02:53:28;;;;;;;16.00;8.73;;;14.90;99.90;;;;;;5112080;28;20047;-54
2022/06/22 02:55:56;;;;;;;15.73;9.25;;;14.80;99.90;;;;;;5110566;28;20051;-54
2022/06/22 02:58:30;;;;;;;14.93;8.68;;;14.80;99.90;;;;;;5111900;28;20059;-54
2022/06/22 03:01:02;;;;;;;15.27;8.13;;;14.70;99.90;;;;;;5112375;28;20040;-55
2022/06/22 03:03:30;;;;;;;17.40;9.05;;;14.60;99.90;;;;;;5112638;28;20044;-55
2022/06/22 03:05:58;;;;;;;15.90;8.82;;;14.60;99.90;;;;;;5113128;28;20048;-54
2022/06/22 03:08:26;;;;;;;15.60;8.25;;;14.50;99.90;;;;;;5112928;28;20047;-54
2022/06/22 03:11:03;;;;;;;18.73;8.68;;;14.50;99.90;;;;;;5109417;28;20099;-54
2022/06/22 03:14:02;;;;;;;15.63;8.70;;;14.40;99.90;;;;;;5104871;28;20379;-54
2022/06/22 03:16:34;;;;;;;18.90;8.33;;;14.40;99.90;;;;;;5112878;28;20043;-54
2022/06/22 03:19:15;;;;;;;14.80;8.25;;;14.40;99.90;;;;;;5111823;28;20048;-54
2022/06/22 03:21:43;;;;;;;13.95;7.82;;;14.40;99.90;;;;;;5111568;28;20036;-54
2022/06/22 03:24:29;;;;;;;15.88;8.93;;;14.50;99.90;;;;;;5113650;28;20047;-54
2022/06/22 03:27:03;;;;;;;15.75;8.85;;;14.50;99.90;;;;;;5110638;28;20036;-55
2022/06/22 03:29:34;;;;;;;16.70;9.48;;;14.50;99.90;;;;;;5111717;28;20047;-54
2022/06/22 03:32:29;;;;;;;18.45;9.38;;;14.50;99.90;;;;;;5112115;28;20036;-56
2022/06/22 03:35:11;;;;;;;17.67;9.02;;;14.50;99.90;;;;;;5108956;28;20059;-57
2022/06/22 03:37:50;;;;;;;18.15;8.63;;;14.50;99.90;;;;;;5110507;28;20504;-56
2022/06/22 03:40:31;;;;;;;16.73;9.32;;;14.50;99.90;;;;;;5111823;28;20399;-55
2022/06/22 03:43:17;;;;;;;16.92;9.30;;;14.50;99.90;;;;;;5111781;28;20047;-55
2022/06/22 03:45:49;;;;;;;19.50;9.73;;;14.50;99.90;;;;;;5112487;28;20054;-54
2022/06/22 03:48:31;;;;;;;20.83;9.70;;;14.60;99.90;;;;;;5111939;28;20040;-57
2022/06/22 03:51:34;;;;;;;20.55;10.85;;;14.60;99.90;;;;;;5091995;28;20064;-56
2022/06/22 03:54:19;;;;;;;18.58;10.25;;;14.60;99.90;;;;;;5091462;28;20044;-55
2022/06/22 03:56:53;;;;;;;22.85;9.55;;;14.60;99.90;;;;;;5092640;28;20051;-54
2022/06/22 03:59:21;;;;;;;19.83;9.07;;;14.70;99.90;;;;;;5111128;28;20616;-57
2022/06/22 04:01:50;;;;;;;16.48;9.07;;;14.70;99.90;;;;;;5111706;28;20040;-57
2022/06/22 04:04:17;;;;;;;18.45;9.70;;;14.70;99.90;;;;;;5112213;28;20047;-55
2022/06/22 04:06:48;;;;;;;22.77;10.23;;;14.80;99.90;;;;;;5111615;28;20040;-54
2022/06/22 04:09:19;;;;;;;22.35;10.32;;;14.80;99.90;;;;;;5110337;28;20042;-56
2022/06/22 04:12:01;;;;;;;23.15;11.30;;;14.80;99.90;;;;;;5112245;28;20573;-57
2022/06/22 04:14:38;;;;;;;23.73;11.02;;;14.90;99.90;;;;;;5111955;28;20598;-56
2022/06/22 04:17:15;;;;;;;20.35;10.75;;;14.90;99.90;;;;;;5110520;28;20043;-55
2022/06/22 04:19:48;;;;;;;22.45;10.07;;;14.90;99.90;;;;;;5111589;28;20490;-56
2022/06/22 04:22:23;;;;;;;27.88;10.82;;;14.90;99.90;;;;;;5112072;28;20048;-55
2022/06/22 04:25:34;;;;;;;23.55;10.35;;;15.00;99.90;;;;;;5111898;28;20077;-56
2022/06/22 04:28:06;;;;;;;23.15;10.27;;;14.90;99.90;;;;;;5112278;28;20054;-56
2022/06/22 04:30:41;;;;;;;16.80;9.73;;;15.00;99.90;;;;;;5111274;28;20051;-57
2022/06/22 04:33:35;;;;;;;16.92;9.00;;;15.00;99.90;;;;;;5111906;28;20043;-54
2022/06/22 04:36:06;;;;;;;16.30;8.93;;;15.00;99.90;;;;;;5111917;28;20031;-56
2022/06/22 04:39:01;;;;;;;21.63;9.48;;;15.10;99.90;;;;;;5110710;28;20035;-56
2022/06/22 04:41:38;;;;;;;19.45;9.70;;;15.10;99.90;;;;;;5111194;28;20035;-55
2022/06/22 04:44:13;;;;;;;20.63;10.07;;;15.00;99.90;;;;;;5111919;28;20044;-56
2022/06/22 04:47:16;;;;;;;18.95;9.02;;;15.00;99.90;;;;;;5111661;28;20039;-55
2022/06/22 04:49:52;;;;;;;22.10;9.45;;;15.10;99.90;;;;;;5084610;28;20043;-55
2022/06/22 04:52:36;;;;;;;19.98;9.38;;;15.00;99.90;;;;;;5091950;28;20048;-56
2022/06/22 04:55:06;;;;;;;23.42;9.65;;;15.00;99.90;;;;;;5087887;28;20036;-56
2022/06/22 04:57:39;;;;;;;17.15;8.38;;;15.10;99.90;;;;;;5087804;28;20395;-57
2022/06/22 05:00:18;;;;;;;20.02;8.43;;;15.00;99.90;;;;;;5099762;28;20047;-56
2022/06/22 05:02:49;;;;;;;16.42;8.10;;;15.00;99.90;;;;;;5097214;28;20051;-56
2022/06/22 05:05:24;;;;;;;17.23;8.25;;;15.00;99.90;;;;;;5085627;28;20491;-57
2022/06/22 05:07:59;;;;;;;19.65;9.30;;;15.00;99.90;;;;;;5087903;28;20498;-56
2022/06/22 05:10:39;;;;;;;18.80;8.52;;;15.00;99.90;;;;;;5104626;28;20056;-57
2022/06/22 05:13:23;;;;;;;16.37;8.03;;;15.00;99.90;;;;;;5108938;28;20163;-57
2022/06/22 05:15:54;;;;;;;14.60;6.63;;;15.10;99.90;;;;;;5108204;28;20039;-55
2022/06/22 05:18:29;;;;;;;15.80;7.38;;;15.10;99.90;;;;;;5094946;28;20044;-55
2022/06/22 05:21:00;;;;;;;16.55;7.20;;;15.10;99.90;;;;;;5106155;28;20040;-55
2022/06/22 05:23:30;;;;;;;15.35;6.90;;;15.10;99.90;;;;;;5104599;28;20398;-54
2022/06/22 05:26:03;;;;;;;15.50;7.22;;;15.20;99.90;;;;;;5105168;28;20090;-56
2022/06/22 05:28:34;;;;;;;17.88;7.57;;;15.20;99.90;;;;;;5096999;28;20052;-55
2022/06/22 05:31:16;;;;;;;17.65;7.38;;;15.20;99.90;;;;;;5110544;28;20039;-54
2022/06/22 05:33:48;;;;;;;16.05;7.47;;;15.20;99.90;;;;;;5113550;28;20046;-55
2022/06/22 05:36:21;;;;;;;18.15;7.85;;;15.20;99.90;;;;;;5111885;28;20051;-55
2022/06/22 05:38:52;;;;;;;16.63;7.65;;;15.30;99.90;;;;;;5105115;28;20508;-55
2022/06/22 05:41:25;;;;;;;14.15;7.35;;;15.30;99.90;;;;;;5110099;28;20054;-55
2022/06/22 05:43:57;;;;;;;13.98;7.18;;;15.30;99.90;;;;;;5107628;28;20072;-55
2022/06/22 05:46:26;;;;;;;13.77;7.38;;;15.40;99.90;;;;;;5105360;28;20040;-54
2022/06/22 05:48:55;;;;;;;17.45;8.15;;;15.40;99.90;;;;;;5094834;28;20040;-55
2022/06/22 05:51:36;;;;;;;19.23;7.93;;;15.40;99.90;;;;;;5090765;28;20055;-54
2022/06/22 05:54:43;;;;;;;17.02;7.45;;;15.50;99.90;;;;;;5112922;28;20044;-57
2022/06/22 05:57:17;;;;;;;18.73;6.97;;;15.50;99.90;;;;;;5111515;28;20509;-55
2022/06/22 05:59:45;;;;;;;14.52;7.32;;;15.50;99.90;;;;;;5092141;28;20403;-57
2022/06/22 06:02:40;;;;;;;14.73;7.28;;;15.50;99.90;;;;;;5107418;28;20043;-57
2022/06/22 06:05:18;;;;;;;14.43;7.70;;;15.60;99.90;;;;;;5110085;28;20505;-57
2022/06/22 06:07:49;;;;;;;13.77;7.35;;;15.60;99.90;;;;;;5102982;28;20056;-58
2022/06/22 06:10:21;;;;;;;12.73;6.85;;;15.70;99.90;;;;;;5089033;28;20482;-57
2022/06/22 06:13:03;;;;;;;15.07;7.15;;;15.70;99.90;;;;;;5098067;28;20066;-55
2022/06/22 06:15:35;;;;;;;11.70;6.75;;;15.80;99.90;;;;;;5112502;28;20048;-56
2022/06/22 06:18:05;;;;;;;13.32;6.88;;;15.80;99.90;;;;;;5104129;28;20521;-55
2022/06/22 06:20:38;;;;;;;15.55;6.50;;;15.90;99.90;;;;;;5100404;28;20051;-55
2022/06/22 06:23:21;;;;;;;17.60;7.10;;;16.00;99.90;;;;;;5108162;28;20523;-56
2022/06/22 06:29:02;;;;;;;12.52;6.32;;;16.10;99.90;;;;;;5092182;28;20395;-57
2022/06/22 06:31:46;;;;;;;10.25;6.15;;;16.20;99.90;;;;;;5108090;28;20050;-56
2022/06/22 06:34:18;;;;;;;13.68;6.13;;;16.30;99.90;;;;;;5107099;28;20059;-56
2022/06/22 06:37:21;;;;;;;11.82;6.00;;;16.40;99.90;;;;;;5097259;28;20483;-55
2022/06/22 06:39:52;;;;;;;13.55;5.68;;;16.50;99.90;;;;;;5084668;28;20052;-57
2022/06/22 06:42:35;;;;;;;12.05;5.93;;;16.50;99.90;;;;;;5092085;28;20048;-56
2022/06/22 06:45:14;;;;;;;12.93;5.63;;;16.60;99.90;;;;;;5099121;28;20040;-56
2022/06/22 06:47:47;;;;;;;9.35;5.15;;;16.60;99.90;;;;;;5089511;28;20059;-56
2022/06/22 06:50:33;;;;;;;9.82;4.60;;;16.70;99.90;;;;;;5097593;28;20050;-56
2022/06/22 06:53:09;;;;;;;13.43;5.57;;;16.70;99.90;;;;;;5100459;28;20044;-57
2022/06/22 06:55:44;;;;;;;8.70;5.10;;;16.70;99.90;;;;;;5104562;28;20047;-57
2022/06/22 06:58:30;;;;;;;9.73;4.97;;;16.80;99.90;;;;;;5098071;28;20048;-56
2022/06/22 07:00:58;;;;;;;11.07;5.70;;;16.90;99.90;;;;;;5101137;28;20711;-57
2022/06/22 07:03:31;;;;;;;8.70;4.45;;;17.00;99.90;;;;;;5097391;28;20044;-55
2022/06/22 07:06:01;;;;;;;8.32;4.13;;;17.10;99.90;;;;;;5097811;28;20059;-55
2022/06/22 07:08:47;;;;;;;15.00;4.47;;;17.20;99.90;;;;;;5094699;28;20043;-55
2022/06/22 07:11:31;;;;;;;9.95;4.18;;;17.20;99.90;;;;;;5106965;28;20047;-55
2022/06/22 07:14:22;;;;;;;9.50;5.18;;;17.20;99.90;;;;;;5103647;28;20055;-55
2022/06/22 07:16:54;;;;;;;7.63;4.43;;;17.10;99.90;;;;;;5093972;28;20035;-55
2022/06/22 07:19:31;;;;;;;7.68;3.85;;;17.00;99.90;;;;;;5084920;28;20044;-56
2022/06/22 07:22:07;;;;;;;8.27;5.00;;;16.90;99.90;;;;;;5108758;28;20055;-55
2022/06/22 07:25:15;;;;;;;10.50;5.22;;;16.90;99.90;;;;;;5107003;28;20044;-56
2022/06/22 07:27:54;;;;;;;9.68;5.10;;;16.90;99.90;;;;;;5102427;28;20046;-56
2022/06/22 07:30:40;;;;;;;8.02;4.47;;;16.90;99.90;;;;;;5101091;28;20078;-56
2022/06/22 07:33:32;;;;;;;9.75;4.80;;;17.00;99.90;;;;;;5107215;28;20058;-56
2022/06/22 07:36:27;;;;;;;15.00;5.63;;;17.00;99.90;;;;;;5088200;28;20048;-58
2022/06/22 07:39:01;;;;;;;7.25;4.65;;;17.10;99.90;;;;;;5088372;28;20388;-56
2022/06/22 07:41:30;;;;;;;10.18;5.88;;;17.20;99.90;;;;;;5089419;28;20048;-56
2022/06/22 07:44:19;;;;;;;9.98;4.70;;;17.30;99.90;;;;;;5090308;28;20369;-56
2022/06/22 07:47:16;;;;;;;12.13;4.85;;;17.30;99.90;;;;;;5090149;28;20044;-55
2022/06/22 07:49:53;;;;;;;9.82;5.00;;;17.40;99.90;;;;;;5089690;28;20048;-56
2022/06/22 07:52:37;;;;;;;7.72;4.88;;;17.50;99.90;;;;;;5090239;28;20044;-56
2022/06/22 07:55:40;;;;;;;10.48;4.28;;;17.50;99.90;;;;;;5094168;28;20054;-56
2022/06/22 07:58:19;;;;;;;8.32;3.75;;;17.50;99.90;;;;;;5106274;28;20070;-56
2022/06/22 08:00:51;;;;;;;6.72;3.78;;;17.60;99.90;;;;;;5091071;28;20055;-56
2022/06/22 08:03:33;;;;;;;6.97;3.72;;;17.70;99.90;;;;;;5093408;28;20044;-55
2022/06/22 08:06:10;;;;;;;5.70;3.72;;;17.80;99.90;;;;;;5108793;28;20056;-56
2022/06/22 08:08:45;;;;;;;5.60;3.55;;;17.90;99.90;;;;;;5109529;28;20051;-55
2022/06/22 08:11:29;;;;;;;8.50;3.53;;;18.00;99.90;;;;;;5100453;28;20376;-55
2022/06/22 08:13:58;;;;;;;10.20;3.13;;;18.00;99.90;;;;;;5108389;28;20054;-55
2022/06/22 08:16:54;;;;;;;7.65;3.33;;;18.10;99.90;;;;;;5105743;28;20047;-55
2022/06/22 08:19:22;;;;;;;7.15;3.78;;;18.20;99.90;;;;;;5087994;28;20349;-55
2022/06/22 08:21:53;;;;;;;6.60;3.85;;;18.20;99.90;;;;;;5096245;28;20492;-59
2022/06/22 08:24:21;;;;;;;8.27;3.72;;;18.30;99.90;;;;;;5089520;28;20048;-57
2022/06/22 08:26:50;;;;;;;5.35;3.03;;;18.40;99.90;;;;;;5105458;28;20052;-57
2022/06/22 08:29:22;;;;;;;4.60;2.88;;;18.40;99.90;;;;;;5089767;28;20035;-57
2022/06/22 08:32:13;;;;;;;10.35;3.90;;;18.50;99.90;;;;;;5089158;28;20051;-57
2022/06/22 08:35:20;;;;;;;4.60;2.60;;;18.50;99.90;;;;;;5089340;28;20526;-57
2022/06/22 08:38:03;;;;;;;4.30;2.25;;;18.60;99.90;;;;;;5089542;28;20399;-57
2022/06/22 08:40:59;;;;;;;4.68;1.50;;;18.70;99.90;;;;;;5089897;28;20055;-55
2022/06/22 08:43:59;;;;;;;5.63;1.33;;;18.80;99.90;;;;;;5089382;28;20055;-55
2022/06/22 08:46:45;;;;;;;2.90;1.42;;;18.90;99.90;;;;;;5109886;28;20055;-56
2022/06/22 08:49:40;;;;;;;3.08;1.50;;;19.00;99.90;;;;;;5093233;28;20055;-55
2022/06/22 08:52:12;;;;;;;3.28;1.90;;;19.10;99.90;;;;;;5089584;28;20506;-55
2022/06/22 08:55:01;;;;;;;2.38;1.60;;;19.20;99.90;;;;;;5101121;28;20376;-55
2022/06/22 08:57:49;;;;;;;5.18;1.58;;;19.30;99.90;;;;;;5102913;28;20364;-55
2022/06/22 09:00:54;;;;;;;2.25;1.50;;;19.40;99.90;;;;;;5089341;28;20043;-55
2022/06/22 09:04:07;;;;;;;17.15;2.10;;;19.40;99.90;;;;;;5092129;28;20416;-55
2022/06/22 09:06:44;;;;;;;2.83;1.50;;;19.50;99.90;;;;;;5092782;28;20052;-55
2022/06/22 09:09:31;;;;;;;2.53;1.90;;;19.60;99.90;;;;;;5111252;28;20047;-55
2022/06/22 09:12:10;;;;;;;3.08;1.98;;;19.60;99.90;;;;;;5112756;28;20047;-55
2022/06/22 09:15:10;;;;;;;4.70;2.25;;;19.70;99.90;;;;;;5097658;28;20478;-55
2022/06/22 09:17:56;;;;;;;;;;;19.80;99.90;;;;;;5110038;28;20039;-56
2022/06/22 09:20:35;;;;;;;2.00;1.50;;;19.90;99.90;;;;;;5092955;28;20268;-55
2022/06/22 09:23:27;;;;;;;3.57;1.80;;;20.00;99.90;;;;;;5092996;28;20130;-55
2022/06/22 09:26:03;;;;;;;5.45;2.08;;;20.10;99.90;;;;;;5103224;28;20364;-55
2022/06/22 09:28:36;;;;;;;3.60;1.80;;;20.30;99.90;;;;;;5099833;28;20048;-56
2022/06/22 09:31:07;;;;;;;4.13;2.22;;;20.40;99.90;;;;;;5092792;28;20044;-58
2022/06/22 09:34:06;;;;;;;3.58;1.98;;;20.50;99.90;;;;;;5096137;28;20044;-58
2022/06/22 09:36:39;;;;;;;6.07;1.92;;;20.60;99.90;;;;;;5113290;28;20048;-58
2022/06/22 09:39:21;;;;;;;5.10;2.22;;;20.70;99.90;;;;;;5096431;28;20052;-58
2022/06/22 09:42:10;;;;;;;3.58;1.85;;;20.70;99.90;;;;;;5092335;28;20052;-59
2022/06/22 09:44:50;;;;;;;3.00;1.90;;;20.80;99.90;;;;;;5092300;28;20414;-56
2022/06/22 09:47:42;;;;;;;4.57;1.90;;;20.90;99.90;;;;;;5110538;28;20046;-55
2022/06/22 09:50:44;;;;;;;2.53;1.50;;;21.10;99.90;;;;;;5092457;28;20048;-55
2022/06/22 09:53:43;;;;;;;2.38;1.73;;;21.20;99.90;;;;;;5099814;28;20066;-56
2022/06/22 09:56:33;;;;;;;6.13;1.55;;;21.20;99.90;;;;;;5107925;28;20043;-56
2022/06/22 09:59:04;;;;;;;3.40;1.38;;;21.40;99.90;;;;;;5103636;28;20058;-56
2022/06/22 10:01:51;;;;;;;4.05;1.35;;;21.60;99.90;;;;;;5108934;28;20047;-57
2022/06/22 10:04:22;;;;;;;5.75;1.90;;;21.70;99.90;;;;;;5110640;28;20043;-56
2022/06/22 10:07:17;;;;;;;3.08;1.83;;;21.80;99.90;;;;;;5109673;28;20520;-56
2022/06/22 10:10:19;;;;;;;6.38;1.60;;;21.90;99.90;;;;;;5101144;28;20048;-56
2022/06/22 10:13:06;;;;;;;20.00;3.10;;;22.10;99.90;;;;;;5107856;28;20040;-56
2022/06/22 10:15:58;;;;;;;6.85;1.70;;;22.10;99.90;;;;;;5091702;28;20074;-55
2022/06/22 10:18:48;;;;;;;3.13;1.63;;;22.20;99.90;;;;;;5091746;28;20781;-56
2022/06/22 10:21:35;;;;;;;7.30;1.73;;;22.30;99.90;;;;;;5090148;28;20052;-55
2022/06/22 10:24:23;;;;;;;4.25;2.05;;;22.40;99.90;;;;;;5091613;28;20048;-56
2022/06/22 10:26:55;;;;;;;3.45;2.05;;;22.50;99.90;;;;;;5089048;28;20483;-56
2022/06/22 10:29:47;;;;;;;7.28;1.83;;;22.70;99.90;;;;;;5092384;28;20516;-56
2022/06/22 10:32:48;;;;;;;8.10;2.22;;;22.90;99.90;;;;;;5091663;28;20044;-56
2022/06/22 10:35:22;;;;;;;5.00;2.20;;;23.20;99.90;;;;;;5091638;28;20047;-55
2022/06/22 10:37:58;;;;;;;4.63;1.95;;;23.30;99.90;;;;;;5091271;28;20824;-56
2022/06/22 10:47:21;;;;;;;3.72;1.30;;;23.50;99.50;;;;;;5091280;28;20048;-56
2022/06/22 10:50:07;;;;;;;3.58;1.27;;;23.50;98.90;;;;;;5090263;28;20059;-55
2022/06/22 10:53:30;;;;;;;3.92;1.88;;;23.50;98.20;;;;;;5091373;28;20052;-56
2022/06/22 10:56:29;;;;;;;2.53;1.20;;;23.60;98.10;;;;;;5091330;28;20051;-56
2022/06/22 10:59:16;;;;;;;2.72;1.50;;;23.70;97.50;;;;;;5095471;28;20043;-56
2022/06/22 11:02:02;;;;;;;1.92;1.02;;;23.90;97.30;;;;;;5108923;28;20043;-56
2022/06/22 11:04:55;;;;;;;1.98;1.27;;;24.00;97.20;;;;;;5111466;28;20051;-56
2022/06/22 11:07:39;;;;;;;4.82;1.50;;;24.20;96.50;;;;;;5110916;28;20048;-56
2022/06/22 11:10:37;;;;;;;4.43;1.50;;;24.30;96.30;;;;;;5091886;28;20044;-55
2022/06/22 11:13:49;;;;;;;2.70;1.30;;;24.40;95.30;;;;;;5107713;28;20498;-56
2022/06/22 11:16:47;;;;;;;2.40;1.40;;;24.30;94.90;;;;;;5091079;28;20044;-56
2022/06/22 11:19:32;;;;;;;2.85;1.52;;;24.40;95.10;;;;;;5090713;28;20048;-56
2022/06/22 11:22:10;;;;;;;4.65;1.05;;;24.50;95.00;;;;;;5090844;28;20056;-56
2022/06/22 11:31:33;;;;;;;2.58;1.38;;;24.50;94.40;;;;;;5090602;28;20048;-58
2022/06/22 11:34:19;;;;;;;2.33;1.17;;;24.50;93.70;;;;;;5090255;28;20048;-57
2022/06/22 11:37:13;;;;;;;3.88;1.70;;;24.60;93.70;;;;;;5090665;28;20055;-57
2022/06/22 11:40:22;;;;;;;4.50;1.20;;;24.70;93.70;;;;;;5090967;28;20036;-58
2022/06/22 11:43:18;;;;;;;1.45;0.88;;;24.90;93.50;;;;;;5091771;27;20081;-58
2022/06/22 11:45:59;;;;;;;;;;;25.10;94.00;;;;;;5090247;28;20043;-58
2022/06/22 11:48:49;;;;;;;8.05;1.38;;;25.40;93.30;;;;;;5101353;28;19924;-57
2022/06/22 11:51:47;;;;;;;7.88;1.48;;;25.70;92.60;;;;;;5100185;28;20044;-58
2022/06/22 11:54:42;;;;;;;6.78;1.13;;;25.80;91.70;;;;;;5096311;28;20047;-58
2022/06/22 11:57:26;;;;;;;3.10;1.35;;;26.00;91.70;;;;;;5099785;28;20039;-58
2022/06/22 12:00:29;;;;;;;5.45;1.30;;;26.20;90.90;;;;;;5102588;28;20094;-58
2022/06/22 12:03:34;;;;;;;3.45;1.20;;;26.50;90.00;;;;;;5097269;28;20048;-57
2022/06/22 12:06:02;;;;;;;4.40;1.05;;;26.70;88.90;;;;;;5103232;28;20394;-58
2022/06/22 12:09:06;;;;;;;3.67;1.30;;;27.00;88.10;;;;;;5100503;28;20055;-56
2022/06/22 12:12:01;;;;;;;7.50;1.30;;;27.30;88.40;;;;;;5098914;28;20047;-58
2022/06/22 12:17:32;;;;;;;3.85;1.23;;;27.40;84.80;;;;;;5088905;28;20052;-57
2022/06/22 12:20:41;;;;;;;3.17;1.08;;;27.50;85.30;;;;;;5096175;28;20052;-58
2022/06/22 12:23:19;;;;;;;4.82;1.40;;;27.80;85.40;;;;;;5109554;28;20043;-56
2022/06/22 12:25:55;;;;;;;5.43;1.60;;;28.10;83.20;;;;;;5110290;28;20514;-57
2022/06/22 12:28:34;;;;;;;6.72;1.60;;;28.30;83.50;;;;;;5101564;28;20036;-57
2022/06/22 12:31:18;;;;;;;3.83;1.20;;;28.70;82.30;;;;;;5092601;28;20418;-56
2022/06/22 12:34:30;;;;;;;5.10;1.63;;;28.90;78.80;;;;;;5101442;28;20059;-56
2022/06/22 12:37:14;;;;;;;2.42;1.13;;;29.20;77.20;;;;;;5111819;28;20048;-58
2022/06/22 12:39:58;;;;;;;2.95;1.52;;;29.30;78.00;;;;;;5092674;28;20048;-57
2022/06/22 12:42:53;;;;;;;5.50;1.77;;;29.50;76.00;;;;;;5101967;28;20059;-57
2022/06/22 12:45:30;;;;;;;9.80;2.50;;;29.70;74.60;;;;;;5106226;28;20114;-58
2022/06/22 12:48:07;;;;;;;3.08;1.55;;;29.90;74.60;;;;;;5108939;28;20044;-57
2022/06/22 12:50:44;;;;;;;5.05;1.50;;;30.00;73.80;;;;;;5093735;28;20048;-59
2022/06/22 12:53:25;;;;;;;3.25;1.48;;;30.00;71.60;;;;;;5093549;28;20048;-58
2022/06/22 12:56:03;;;;;;;3.92;1.67;;;29.90;72.50;;;;;;5108258;28;20035;-58
2022/06/22 12:58:43;;;;;;;3.65;1.77;;;30.00;72.70;;;;;;5104209;28;20484;-59
2022/06/22 13:01:10;;;;;;;4.97;1.75;;;30.00;72.50;;;;;;5097650;28;20058;-57
2022/06/22 13:03:49;;;;;;;8.77;1.63;;;30.20;72.90;;;;;;5092781;28;20044;-58
2022/06/22 13:06:18;;;;;;;3.25;1.80;;;30.10;72.00;;;;;;5106659;28;20043;-57
2022/06/22 13:08:45;;;;;;;3.13;1.50;;;30.20;71.70;;;;;;5101704;28;20059;-58
2022/06/22 13:11:19;;;;;;;2.95;1.73;;;30.20;71.00;;;;;;5094369;28;20051;-57
2022/06/22 13:14:18;;;;;;;4.90;1.38;;;30.50;70.90;;;;;;5113413;28;20055;-58
2022/06/22 13:16:52;;;;;;;3.67;1.80;;;30.70;71.10;;;;;;5100704;28;20051;-57
2022/06/22 13:19:38;;;;;;;3.60;2.42;;;31.00;70.10;;;;;;5108979;28;20047;-59
2022/06/22 13:22:14;;;;;;;6.22;2.28;;;31.20;69.50;;;;;;5111528;28;20040;-58
2022/06/22 13:25:00;;;;;;;5.20;1.70;;;31.00;66.80;;;;;;5110055;28;20058;-58
2022/06/22 13:27:38;;;;;;;4.03;1.95;;;30.90;68.30;;;;;;5101193;28;20051;-58
2022/06/22 13:30:11;;;;;;;3.38;1.65;;;31.00;68.30;;;;;;5093683;28;20059;-58
2022/06/22 13:32:39;;;;;;;9.90;1.98;;;31.10;67.70;;;;;;5103514;28;20044;-58
2022/06/22 13:35:29;;;;;;;5.93;2.00;;;31.30;67.10;;;;;;5098540;28;20040;-58
2022/06/22 13:38:17;;;;;;;4.07;1.85;;;31.40;66.10;;;;;;5099697;28;20051;-57
2022/06/22 13:41:26;;;;;;;5.78;1.70;;;31.40;65.20;;;;;;5096200;28;20040;-57
2022/06/22 13:44:13;;;;;;;4.50;1.77;;;31.40;65.10;;;;;;5095223;28;20035;-58
2022/06/22 13:46:53;;;;;;;5.28;1.70;;;31.60;64.30;;;;;;5102765;28;20491;-57
2022/06/22 13:50:03;;;;;;;2.47;1.60;;;31.70;63.70;;;;;;5092377;28;20391;-58
2022/06/22 13:52:42;;;;;;;3.10;1.40;;;31.70;63.40;;;;;;5102188;28;20135;-58
2022/06/22 13:55:29;;;;;;;3.70;1.55;;;31.60;63.70;;;;;;5095158;28;20044;-58
2022/06/22 13:57:59;;;;;;;2.83;1.42;;;31.70;63.90;;;;;;5106781;28;20040;-58
2022/06/22 14:00:44;;;;;;;4.30;1.50;;;31.80;63.90;;;;;;5097222;28;20047;-58
2022/06/22 14:03:30;;;;;;;6.03;1.38;;;31.80;63.80;;;;;;5096029;27;20055;-58
2022/06/22 14:06:22;;;;;;;7.72;1.50;;;32.00;63.50;;;;;;5109546;28;20621;-58
2022/06/22 14:09:13;;;;;;;9.30;2.25;;;32.20;63.30;;;;;;5102250;28;20032;-59
2022/06/22 14:12:17;;;;;;;7.00;2.08;;;32.30;62.90;;;;;;5099401;28;20048;-58
2022/06/22 14:14:58;;;;;;;13.93;2.30;;;32.40;62.00;;;;;;5095818;28;20049;-58
2022/06/22 14:17:37;;;;;;;6.82;1.92;;;32.40;62.60;;;;;;5099249;28;20035;-57
2022/06/22 14:20:23;;;;;;;6.68;1.42;;;32.20;61.60;;;;;;5110424;28;20052;-59
2022/06/22 14:22:57;;;;;;;3.05;1.27;;;32.20;62.70;;;;;;5104556;28;20063;-58